Time;durP1;ratioP1;P1;durP2;ratioP2;P2;SDS_P1;SDS_P2;PMS_P1;PMS_P2;Temp;Humidity;BMP_temperature;BMP_pressure;BME280_temperature;BME280_humidity;BME280_pressure;Samples;Min_cycle;Max_cycle;Signal;HPM_P1;HPM_P2
2023/03/31 00:00:28;;;;;;;;;;;;;;;15.42;67.79;99964.22;1038381;28;709;-66
2023/03/31 00:01:18;;;;;;;;;;;;;;;15.37;68.17;99963.84;1036715;28;705;-66
2023/03/31 00:02:15;;;;;;;;;;;;;;;15.39;67.63;99966.38;1039913;28;691;-65
2023/03/31 00:03:09;;;;;;;;;;;;;;;15.39;68.01;99966.38;1035872;28;741;-66
2023/03/31 00:04:03;;;;;;;;;;;;;;;15.40;68.07;99960.03;1036271;28;713;-65
2023/03/31 00:04:58;;;;;;;;;;;;;;;15.40;67.55;99954.66;1040355;28;1894;-66
2023/03/31 00:05:52;;;;;;;;;;;;;;;15.41;67.97;99949.09;1042124;28;1216;-65
2023/03/31 00:06:42;;;;;;;;;;;;;;;15.39;67.85;99951.13;1043523;28;1034;-65
2023/03/31 00:07:36;;;;;;;;;;;;;;;15.38;67.78;99944.06;1044678;28;769;-65
2023/03/31 00:08:28;;;;;;;;;;;;;;;15.38;68.13;99945.91;1043627;28;689;-65
2023/03/31 00:09:20;;;;;;;;;;;;;;;15.37;68.19;99942.38;1043515;28;705;-64
2023/03/31 00:10:11;;;;;;;;;;;;;;;15.38;68.05;99938.69;1040950;28;1297;-66
2023/03/31 00:11:01;;;;;;;;;;;;;;;15.34;68.00;99937.31;1040472;28;1474;-64
2023/03/31 00:11:52;;;;;;;;;;;;;;;15.35;67.95;99939.00;1044892;28;1035;-66
2023/03/31 00:12:42;;;;;;;;;;;;;;;15.34;68.30;99931.09;1045186;28;645;-67
2023/03/31 00:13:33;;;;;;;;;;;;;;;15.33;67.96;99938.31;1041567;28;890;-67
2023/03/31 00:14:23;;;;;;;;;;;;;;;15.30;68.23;99925.19;1042893;28;1159;-66
2023/03/31 00:15:14;;;;;;;;;;;;;;;15.33;68.34;99930.25;1044809;28;666;-65
2023/03/31 00:16:04;;;;;;;;;;;;;;;15.34;68.55;99931.09;1044763;28;1135;-66
2023/03/31 00:16:55;;;;;;;;;;;;;;;15.34;68.07;99917.66;1044304;28;625;-66
2023/03/31 00:17:46;;;;;;;;;;;;;;;15.35;68.25;99924.72;1044188;28;1165;-66
2023/03/31 00:18:36;;;;;;;;;;;;;;;15.32;68.58;99928.56;1044668;28;725;-66
2023/03/31 00:19:27;;;;;;;;;;;;;;;15.32;68.06;99927.72;1044237;28;1138;-66
2023/03/31 00:20:18;;;;;;;;;;;;;;;15.31;68.50;99932.25;1043616;28;705;-66
2023/03/31 00:21:13;;;;;;;;;;;;;;;15.30;68.00;99935.91;1043975;28;713;-66
2023/03/31 00:22:05;;;;;;;;;;;;;;;15.29;68.10;99924.34;1041025;28;743;-66
2023/03/31 00:22:56;;;;;;;;;;;;;;;15.31;68.20;99923.34;1043442;28;1015;-66
2023/03/31 00:23:46;;;;;;;;;;;;;;;15.29;68.31;99918.97;1044486;28;637;-66
2023/03/31 00:24:37;;;;;;;;;;;;;;;15.34;68.85;99909.63;1044551;28;1913;-66
2023/03/31 00:25:27;;;;;;;;;;;;;;;15.35;68.51;99909.47;1040626;28;1404;-66
2023/03/31 00:26:18;;;;;;;;;;;;;;;15.35;68.81;99909.47;1044646;28;1086;-66
2023/03/31 00:27:08;;;;;;;;;;;;;;;15.35;68.63;99905.94;1042514;28;1539;-66
2023/03/31 00:27:59;;;;;;;;;;;;;;;15.35;68.91;99901.41;1044166;28;1055;-66
2023/03/31 00:28:49;;;;;;;;;;;;;;;15.36;68.54;99900.41;1045203;28;708;-66
2023/03/31 00:29:40;;;;;;;;;;;;;;;15.38;68.44;99901.13;1041049;28;629;-66
2023/03/31 00:30:30;;;;;;;;;;;;;;;15.36;68.24;99892.38;1039971;28;693;-66
2023/03/31 00:31:21;;;;;;;;;;;;;;;15.37;68.56;99904.78;1045156;28;701;-66
2023/03/31 00:32:13;;;;;;;;;;;;;;;15.36;68.46;99896.88;1043365;28;702;-66
2023/03/31 00:33:03;;;;;;;;;;;;;;;15.35;68.52;99904.09;1040073;28;681;-66
2023/03/31 00:33:54;;;;;;;;;;;;;;;15.33;68.85;99884.63;1041628;28;714;-66
2023/03/31 00:34:45;;;;;;;;;;;;;;;15.32;68.98;99888.28;1039267;28;630;-66
2023/03/31 00:35:38;;;;;;;;;;;;;;;15.33;68.56;99887.28;1042889;28;701;-65
2023/03/31 00:36:28;;;;;;;;;;;;;;;15.31;68.40;99883.91;1040301;28;1143;-64
2023/03/31 00:37:19;;;;;;;;;;;;;;;15.32;68.39;99888.28;1042451;28;959;-65
2023/03/31 00:38:12;;;;;;;;;;;;;;;15.35;68.29;99879.94;1045003;28;677;-66
2023/03/31 00:39:08;;;;;;;;;;;;;;;15.34;68.54;99878.25;1043802;28;1011;-65
2023/03/31 00:39:58;;;;;;;;;;;;;;;15.35;68.23;99874.56;1044655;28;708;-65
2023/03/31 00:40:49;;;;;;;;;;;;;;;15.34;68.33;99872.88;1041808;28;1392;-65
2023/03/31 00:41:39;;;;;;;;;;;;;;;15.33;68.68;99873.03;1040995;28;1573;-65
2023/03/31 00:42:30;;;;;;;;;;;;;;;15.33;68.49;99865.81;1039785;28;697;-65
2023/03/31 00:43:21;;;;;;;;;;;;;;;15.36;68.60;99862.84;1042546;28;1118;-65
2023/03/31 00:44:13;;;;;;;;;;;;;;;15.36;68.78;99865.53;1041065;28;720;-65
2023/03/31 00:45:04;;;;;;;;;;;;;;;15.37;68.47;99866.38;1042504;28;1927;-66
2023/03/31 00:45:55;;;;;;;;;;;;;;;15.37;68.51;99852.94;1043374;28;645;-65
2023/03/31 00:46:45;;;;;;;;;;;;;;;15.34;68.61;99855.94;1044311;28;1158;-66
2023/03/31 00:47:35;;;;;;;;;;;;;;;15.32;68.79;99856.09;1044426;28;637;-66
2023/03/31 00:48:26;;;;;;;;;;;;;;;15.32;68.71;99853.41;1043126;28;666;-65
2023/03/31 00:49:16;;;;;;;;;;;;;;;15.34;68.89;99851.41;1044377;28;689;-65
2023/03/31 00:50:07;;;;;;;;;;;;;;;15.33;68.40;99856.91;1044888;28;1095;-65
2023/03/31 00:50:58;;;;;;;;;;;;;;;15.33;68.84;99857.78;1044472;28;1087;-66
2023/03/31 00:51:48;;;;;;;;;;;;;;;15.34;68.66;99856.78;1045024;28;706;-65
2023/03/31 00:52:40;;;;;;;;;;;;;;;15.29;68.81;99851.00;1039764;28;602;-65
2023/03/31 00:53:30;;;;;;;;;;;;;;;15.25;68.61;99844.25;1042906;28;1153;-65
2023/03/31 00:54:22;;;;;;;;;;;;;;;15.29;68.75;99843.81;1045265;28;610;-65
2023/03/31 00:55:12;;;;;;;;;;;;;;;15.29;68.52;99835.75;1040801;28;1043;-65
2023/03/31 00:56:03;;;;;;;;;;;;;;;15.28;68.74;99836.75;1040956;28;631;-65
2023/03/31 00:56:54;;;;;;;;;;;;;;;15.30;68.66;99836.59;1041385;28;1340;-65
2023/03/31 00:57:45;;;;;;;;;;;;;;;15.32;68.43;99839.13;1041456;28;636;-65
2023/03/31 00:58:42;;;;;;;;;;;;;;;15.27;68.60;99835.06;1039681;28;1074;-65
2023/03/31 00:59:33;;;;;;;;;;;;;;;15.29;68.45;99830.38;1043667;28;1436;-64
2023/03/31 01:00:23;;;;;;;;;;;;;;;15.28;68.64;99820.66;1041894;28;1016;-65
2023/03/31 01:01:13;;;;;;;;;;;;;;;15.31;68.69;99832.91;1043157;28;1399;-65
2023/03/31 01:02:04;;;;;;;;;;;;;;;15.33;68.59;99822.03;1039624;28;1337;-65
2023/03/31 01:02:57;;;;;;;;;;;;;;;15.33;68.64;99820.19;1042785;28;710;-64
2023/03/31 01:03:49;;;;;;;;;;;;;;;15.32;68.21;99818.50;1040782;28;646;-64
2023/03/31 01:04:40;;;;;;;;;;;;;;;15.32;68.41;99821.19;1044194;28;1893;-64
2023/03/31 01:05:30;;;;;;;;;;;;;;;15.31;68.55;99818.66;1042679;28;1174;-64
2023/03/31 01:06:22;;;;;;;;;;;;;;;15.35;68.41;99815.50;1041546;28;618;-64
2023/03/31 01:07:12;;;;;;;;;;;;;;;15.34;68.37;99813.81;1044265;28;622;-65
2023/03/31 01:08:04;;;;;;;;;;;;;;;15.32;68.77;99810.44;1040882;28;627;-64
2023/03/31 01:08:55;;;;;;;;;;;;;;;15.29;68.61;99811.59;1039549;28;1219;-64
2023/03/31 01:09:47;;;;;;;;;;;;;;;15.27;68.50;99813.59;1040470;28;658;-64
2023/03/31 01:10:40;;;;;;;;;;;;;;;15.29;68.63;99802.69;1043263;28;1571;-64
2023/03/31 01:11:30;;;;;;;;;;;;;;;15.33;68.33;99806.75;1043869;28;634;-65
2023/03/31 01:12:21;;;;;;;;;;;;;;;15.29;68.53;99816.97;1043683;28;1265;-64
2023/03/31 01:13:11;;;;;;;;;;;;;;;15.31;68.65;99815.97;1039974;28;1153;-64
2023/03/31 01:14:03;;;;;;;;;;;;;;;15.28;68.54;99799.16;1042824;28;689;-64
2023/03/31 01:14:53;;;;;;;;;;;;;;;15.31;68.67;99808.75;1040387;28;758;-64
2023/03/31 01:15:44;;;;;;;;;;;;;;;15.30;68.52;99801.69;1043257;28;701;-64
2023/03/31 01:16:34;;;;;;;;;;;;;;;15.27;68.47;99794.78;1047200;28;1248;-64
2023/03/31 01:17:28;;;;;;;;;;;;;;;15.30;68.51;99788.28;1042560;28;740;-64
2023/03/31 01:18:22;;;;;;;;;;;;;;;15.27;68.71;99791.28;1039021;28;643;-64
2023/03/31 01:19:13;;;;;;;;;;;;;;;15.27;68.53;99791.28;1040417;28;1107;-64
2023/03/31 01:20:10;;;;;;;;;;;;;;;15.28;68.60;99783.06;1040312;28;706;-65
2023/03/31 01:21:02;;;;;;;;;;;;;;;15.30;68.49;99782.91;1041112;28;673;-65
2023/03/31 01:21:55;;;;;;;;;;;;;;;15.30;68.35;99785.59;1041594;28;983;-65
2023/03/31 01:22:48;;;;;;;;;;;;;;;15.31;68.35;99781.06;1040982;28;630;-65
2023/03/31 01:23:39;;;;;;;;;;;;;;;15.29;68.42;99778.53;1042567;28;709;-65
2023/03/31 01:24:30;;;;;;;;;;;;;;;15.26;68.56;99782.38;1041029;28;724;-65
2023/03/31 01:25:21;;;;;;;;;;;;;;;15.29;68.61;99775.84;1043689;28;948;-65
2023/03/31 01:26:11;;;;;;;;;;;;;;;15.30;68.36;99772.19;1045548;28;1541;-65
2023/03/31 01:27:01;;;;;;;;;;;;;;;15.29;68.41;99770.50;1044392;28;1037;-64
2023/03/31 01:27:52;;;;;;;;;;;;;;;15.33;68.24;99766.50;1045263;28;637;-64
2023/03/31 01:28:43;;;;;;;;;;;;;;;15.34;68.26;99765.50;1042867;28;1439;-64
2023/03/31 01:29:33;;;;;;;;;;;;;;;15.34;68.48;99770.88;1041684;28;633;-65
2023/03/31 01:30:24;;;;;;;;;;;;;;;15.33;68.35;99768.34;1042851;28;1075;-65
2023/03/31 01:31:15;;;;;;;;;;;;;;;15.29;68.21;99765.13;1046013;28;705;-65
2023/03/31 01:32:05;;;;;;;;;;;;;;;15.27;68.66;99762.59;1045603;28;668;-65
2023/03/31 01:32:56;;;;;;;;;;;;;;;15.25;68.46;99758.38;1039758;28;634;-65
2023/03/31 01:33:46;;;;;;;;;;;;;;;15.23;68.50;99753.16;1041069;28;642;-65
2023/03/31 01:34:37;;;;;;;;;;;;;;;15.26;68.55;99757.38;1040827;28;725;-65
2023/03/31 01:35:27;;;;;;;;;;;;;;;15.21;68.61;99759.72;1041461;28;1102;-65
2023/03/31 01:36:18;;;;;;;;;;;;;;;15.22;68.80;99756.03;1041891;28;917;-65
2023/03/31 01:37:08;;;;;;;;;;;;;;;15.24;68.81;99754.00;1045615;28;697;-65
2023/03/31 01:37:58;;;;;;;;;;;;;;;15.25;68.71;99750.31;1045625;28;956;-65
2023/03/31 01:38:49;;;;;;;;;;;;;;;15.29;68.56;99746.31;1041430;28;591;-65
2023/03/31 01:39:39;;;;;;;;;;;;;;;15.27;68.84;99743.78;1043044;28;713;-65
2023/03/31 01:40:30;;;;;;;;;;;;;;;15.29;68.61;99741.81;1045451;28;1110;-65
2023/03/31 01:41:21;;;;;;;;;;;;;;;15.28;68.65;99736.59;1046056;28;666;-65
2023/03/31 01:42:11;;;;;;;;;;;;;;;15.26;68.40;99731.38;1043283;28;1253;-65
2023/03/31 01:43:02;;;;;;;;;;;;;;;15.25;68.53;99737.75;1044936;28;642;-65
2023/03/31 01:43:52;;;;;;;;;;;;;;;15.24;68.51;99738.75;1045795;28;673;-65
2023/03/31 01:44:43;;;;;;;;;;;;;;;15.25;68.24;99732.38;1044258;28;1894;-65
2023/03/31 01:45:33;;;;;;;;;;;;;;;15.28;68.47;99733.91;1040468;28;952;-65
2023/03/31 01:46:24;;;;;;;;;;;;;;;15.21;68.46;99733.72;1045739;28;685;-66
2023/03/31 01:47:16;;;;;;;;;;;;;;;15.20;69.01;99721.28;1045399;28;1173;-65
2023/03/31 01:48:07;;;;;;;;;;;;;;;15.19;68.69;99721.44;1045693;28;681;-66
2023/03/31 01:48:58;;;;;;;;;;;;;;;15.24;68.51;99713.75;1043601;28;1449;-65
2023/03/31 01:49:48;;;;;;;;;;;;;;;15.25;68.24;99726.16;1044023;28;643;-66
2023/03/31 01:50:39;;;;;;;;;;;;;;;15.25;68.67;99724.31;1041579;28;739;-66
2023/03/31 01:51:30;;;;;;;;;;;;;;;15.25;68.28;99712.75;1043714;28;1086;-66
2023/03/31 01:52:20;;;;;;;;;;;;;;;15.22;68.65;99715.75;1045718;28;678;-65
2023/03/31 01:53:11;;;;;;;;;;;;;;;15.25;68.64;99710.06;1045676;28;629;-66
2023/03/31 01:54:01;;;;;;;;;;;;;;;15.26;68.48;99715.28;1043182;28;658;-66
2023/03/31 01:54:52;;;;;;;;;;;;;;;15.27;68.36;99710.75;1045615;28;626;-66
2023/03/31 01:55:42;;;;;;;;;;;;;;;15.26;68.18;99711.75;1044803;28;1201;-66
2023/03/31 01:56:33;;;;;;;;;;;;;;;15.22;68.59;99708.56;1044438;28;846;-66
2023/03/31 01:57:23;;;;;;;;;;;;;;;15.25;68.06;99713.59;1044791;28;968;-65
2023/03/31 01:58:13;;;;;;;;;;;;;;;15.26;68.12;99704.53;1044254;28;1355;-66
2023/03/31 01:59:04;;;;;;;;;;;;;;;15.25;68.04;99704.69;1043668;28;1220;-66
2023/03/31 01:59:54;;;;;;;;;;;;;;;15.28;68.25;99705.22;1044952;28;688;-66
2023/03/31 02:00:45;;;;;;;;;;;;;;;15.29;68.04;99700.69;1044757;28;625;-65
2023/03/31 02:01:36;;;;;;;;;;;;;;;15.28;67.91;99696.34;1043277;28;1393;-66
2023/03/31 02:02:27;;;;;;;;;;;;;;;15.22;67.86;99697.81;1042906;28;1541;-66
2023/03/31 02:03:18;;;;;;;;;;;;;;;15.21;68.22;99692.59;1040910;28;637;-66
2023/03/31 02:04:08;;;;;;;;;;;;;;;15.18;68.35;99695.59;1040792;28;627;-66
2023/03/31 02:04:59;;;;;;;;;;;;;;;15.14;68.20;99687.00;1044586;28;1898;-66
2023/03/31 02:05:49;;;;;;;;;;;;;;;15.19;68.16;99686.56;1041132;28;1177;-66
2023/03/31 02:06:40;;;;;;;;;;;;;;;15.19;68.69;99682.03;1041136;28;732;-66
2023/03/31 02:07:30;;;;;;;;;;;;;;;15.23;68.52;99682.53;1045388;28;1094;-66
2023/03/31 02:08:21;;;;;;;;;;;;;;;15.22;68.92;99680.88;1045413;28;705;-66
2023/03/31 02:09:12;;;;;;;;;;;;;;;15.21;68.10;99684.56;1044278;28;1094;-66
2023/03/31 02:10:04;;;;;;;;;;;;;;;15.22;68.34;99680.88;1045448;28;680;-66
2023/03/31 02:10:55;;;;;;;;;;;;;;;15.18;68.53;99674.13;1044851;28;1126;-66
2023/03/31 02:11:45;;;;;;;;;;;;;;;15.17;68.33;99667.94;1045494;28;732;-66
2023/03/31 02:12:36;;;;;;;;;;;;;;;15.21;68.52;99680.03;1044748;28;1193;-66
2023/03/31 02:13:27;;;;;;;;;;;;;;;15.20;68.24;99667.63;1044778;28;806;-65
2023/03/31 02:14:18;;;;;;;;;;;;;;;15.19;68.77;99665.09;1044143;28;1223;-65
2023/03/31 02:15:08;;;;;;;;;;;;;;;15.16;68.70;99665.41;1044940;28;753;-66
2023/03/31 02:16:00;;;;;;;;;;;;;;;15.19;68.59;99667.78;1044804;28;1095;-66
2023/03/31 02:16:50;;;;;;;;;;;;;;;15.23;68.43;99663.75;1041462;28;712;-66
2023/03/31 02:17:44;;;;;;;;;;;;;;;15.31;68.58;99658.44;1042100;28;1091;-66
2023/03/31 02:18:37;;;;;;;;;;;;;;;15.27;68.52;99663.28;1040344;28;673;-66
2023/03/31 02:19:27;;;;;;;;;;;;;;;15.25;68.56;99662.59;1041414;28;980;-66
2023/03/31 02:20:18;;;;;;;;;;;;;;;15.27;68.25;99651.69;1044867;28;650;-66
2023/03/31 02:21:08;;;;;;;;;;;;;;;15.26;68.12;99658.06;1042927;28;1518;-66
2023/03/31 02:22:00;;;;;;;;;;;;;;;15.25;68.60;99653.69;1045832;28;735;-66
2023/03/31 02:22:50;;;;;;;;;;;;;;;15.25;68.24;99653.69;1042175;28;721;-66
2023/03/31 02:23:41;;;;;;;;;;;;;;;15.26;68.49;99653.53;1044308;28;677;-66
2023/03/31 02:24:31;;;;;;;;;;;;;;;15.27;68.15;99647.16;1043615;28;645;-66
2023/03/31 02:25:22;;;;;;;;;;;;;;;15.25;68.04;99637.59;1044972;28;630;-66
2023/03/31 02:26:12;;;;;;;;;;;;;;;15.20;68.45;99645.31;1044274;28;709;-66
2023/03/31 02:27:02;;;;;;;;;;;;;;;15.18;68.61;99641.94;1045256;28;1174;-66
2023/03/31 02:27:53;;;;;;;;;;;;;;;15.19;68.41;99647.13;1045376;28;737;-66
2023/03/31 02:28:43;;;;;;;;;;;;;;;15.20;68.51;99637.25;1044165;28;1067;-66
2023/03/31 02:29:34;;;;;;;;;;;;;;;15.22;68.72;99632.56;1041918;28;689;-65
2023/03/31 02:30:24;;;;;;;;;;;;;;;15.19;68.53;99628.34;1041568;28;1505;-66
2023/03/31 02:31:15;;;;;;;;;;;;;;;15.23;68.65;99639.59;1045729;28;590;-65
2023/03/31 02:32:05;;;;;;;;;;;;;;;15.22;68.23;99627.19;1045183;28;716;-66
2023/03/31 02:32:56;;;;;;;;;;;;;;;15.23;68.06;99623.50;1040631;28;767;-65
2023/03/31 02:33:47;;;;;;;;;;;;;;;15.20;68.17;99626.50;1040797;28;641;-65
2023/03/31 02:34:37;;;;;;;;;;;;;;;15.20;68.40;99629.19;1040610;28;1440;-65
2023/03/31 02:35:28;;;;;;;;;;;;;;;15.21;68.59;99620.16;1041155;28;1248;-65
2023/03/31 02:36:18;;;;;;;;;;;;;;;15.19;68.40;99622.16;1045505;28;665;-65
2023/03/31 02:37:09;;;;;;;;;;;;;;;15.17;68.78;99618.78;1041442;28;700;-65
2023/03/31 02:38:01;;;;;;;;;;;;;;;15.16;68.46;99615.25;1044430;28;820;-65
2023/03/31 02:38:52;;;;;;;;;;;;;;;15.17;68.64;99614.25;1042120;28;1029;-66
2023/03/31 02:39:43;;;;;;;;;;;;;;;15.18;68.37;99609.72;1044910;28;705;-65
2023/03/31 02:40:33;;;;;;;;;;;;;;;15.18;68.49;99615.94;1044721;28;1210;-65
2023/03/31 02:41:24;;;;;;;;;;;;;;;15.19;68.12;99609.56;1044477;28;948;-65
2023/03/31 02:42:14;;;;;;;;;;;;;;;15.17;68.32;99611.56;1045434;28;661;-65
2023/03/31 02:43:05;;;;;;;;;;;;;;;15.18;68.24;99607.03;1043580;28;1079;-65
2023/03/31 02:43:55;;;;;;;;;;;;;;;15.18;68.62;99607.88;1045438;28;721;-65
2023/03/31 02:44:46;;;;;;;;;;;;;;;15.19;68.27;99600.69;1044526;28;2005;-66
2023/03/31 02:45:36;;;;;;;;;;;;;;;15.19;68.23;99600.69;1045549;28;672;-65
2023/03/31 02:46:27;;;;;;;;;;;;;;;15.15;68.64;99604.66;1042575;28;1564;-65
2023/03/31 02:47:17;;;;;;;;;;;;;;;15.16;68.56;99591.09;1045320;28;706;-65
2023/03/31 02:48:07;;;;;;;;;;;;;;;15.15;68.67;99594.78;1045465;28;734;-65
2023/03/31 02:48:58;;;;;;;;;;;;;;;15.18;68.70;99594.47;1041292;28;642;-66
2023/03/31 02:49:48;;;;;;;;;;;;;;;15.18;68.58;99593.63;1040132;28;815;-64
2023/03/31 02:50:39;;;;;;;;;;;;;;;15.17;68.68;99594.63;1040701;28;658;-66
2023/03/31 02:51:30;;;;;;;;;;;;;;;15.14;68.55;99589.56;1042110;28;1043;-66
2023/03/31 02:52:21;;;;;;;;;;;;;;;15.14;68.44;99587.72;1040528;28;709;-66
2023/03/31 02:53:11;;;;;;;;;;;;;;;15.13;68.97;99585.19;1040879;28;1132;-66
2023/03/31 02:54:02;;;;;;;;;;;;;;;15.16;68.83;99577.69;1043575;28;674;-65
2023/03/31 02:54:52;;;;;;;;;;;;;;;15.19;68.47;99573.84;1043046;28;689;-65
2023/03/31 02:55:43;;;;;;;;;;;;;;;15.18;68.49;99577.53;1044735;28;622;-65
2023/03/31 02:56:33;;;;;;;;;;;;;;;15.14;68.64;99571.63;1044602;28;1222;-66
2023/03/31 02:57:24;;;;;;;;;;;;;;;15.15;68.40;99577.84;1044286;28;735;-66
2023/03/31 02:58:14;;;;;;;;;;;;;;;15.17;68.28;99571.31;1044751;28;1079;-66
2023/03/31 02:59:05;;;;;;;;;;;;;;;15.20;68.17;99567.47;1044935;28;1114;-66
2023/03/31 02:59:56;;;;;;;;;;;;;;;15.17;68.57;99563.25;1044034;28;726;-66
2023/03/31 03:00:47;;;;;;;;;;;;;;;15.18;68.35;99556.06;1045273;28;1098;-66
2023/03/31 03:01:37;;;;;;;;;;;;;;;15.14;68.35;99560.91;1041791;28;705;-65
2023/03/31 03:02:27;;;;;;;;;;;;;;;15.16;68.51;99553.53;1041621;28;1505;-65
2023/03/31 03:03:18;;;;;;;;;;;;;;;15.16;68.18;99548.16;1044868;28;625;-65
2023/03/31 03:04:08;;;;;;;;;;;;;;;15.14;68.49;99552.00;1041631;28;1103;-65
2023/03/31 03:04:59;;;;;;;;;;;;;;;15.16;68.28;99550.84;1041172;28;1957;-64
2023/03/31 03:05:49;;;;;;;;;;;;;;;15.13;68.34;99545.78;1039430;28;1197;-65
2023/03/31 03:06:40;;;;;;;;;;;;;;;15.13;68.66;99539.59;1041231;28;772;-65
2023/03/31 03:07:30;;;;;;;;;;;;;;;15.11;68.41;99541.59;1040063;28;1149;-65
2023/03/31 03:08:21;;;;;;;;;;;;;;;15.08;68.57;99529.31;1041072;28;681;-65
2023/03/31 03:09:11;;;;;;;;;;;;;;;15.10;68.58;99537.22;1041380;28;720;-65
2023/03/31 03:10:02;;;;;;;;;;;;;;;15.09;68.61;99524.81;1041863;28;731;-64
2023/03/31 03:10:52;;;;;;;;;;;;;;;15.10;68.86;99526.47;1043321;28;1146;-65
2023/03/31 03:11:42;;;;;;;;;;;;;;;15.10;68.40;99526.47;1044832;28;662;-65
2023/03/31 03:12:33;;;;;;;;;;;;;;;15.11;68.18;99528.16;1042411;28;664;-65
2023/03/31 03:13:23;;;;;;;;;;;;;;;15.09;68.30;99516.75;1041324;28;932;-65
2023/03/31 03:14:14;;;;;;;;;;;;;;;15.10;68.71;99515.75;1045290;28;705;-64
2023/03/31 03:15:05;;;;;;;;;;;;;;;15.12;68.45;99516.44;1044056;28;654;-64
2023/03/31 03:15:55;;;;;;;;;;;;;;;15.10;68.43;99515.75;1044120;28;713;-66
2023/03/31 03:16:46;;;;;;;;;;;;;;;15.10;68.14;99505.03;1044593;28;661;-66
2023/03/31 03:17:37;;;;;;;;;;;;;;;15.13;68.66;99505.53;1043668;28;666;-65
2023/03/31 03:18:28;;;;;;;;;;;;;;;15.13;68.28;99505.53;1039663;28;665;-65
2023/03/31 03:19:18;;;;;;;;;;;;;;;15.14;68.08;99501.84;1040552;28;654;-66
2023/03/31 03:20:09;;;;;;;;;;;;;;;15.17;68.40;99503.38;1040178;28;713;-66
2023/03/31 03:20:59;;;;;;;;;;;;;;;15.14;68.71;99498.34;1044741;28;744;-66
2023/03/31 03:21:50;;;;;;;;;;;;;;;15.10;68.62;99492.44;1043931;28;1158;-66
2023/03/31 03:22:40;;;;;;;;;;;;;;;15.09;68.55;99500.66;1041658;28;692;-65
2023/03/31 03:23:32;;;;;;;;;;;;;;;15.10;68.24;99497.81;1041058;28;1190;-66
2023/03/31 03:24:22;;;;;;;;;;;;;;;15.13;68.58;99496.66;1039950;28;630;-66
2023/03/31 03:25:12;;;;;;;;;;;;;;;15.14;68.40;99490.28;1044137;28;1960;-66
2023/03/31 03:26:03;;;;;;;;;;;;;;;15.12;68.37;99490.44;1044678;28;642;-66
2023/03/31 03:26:54;;;;;;;;;;;;;;;15.09;68.34;99493.44;1044533;28;1165;-66
2023/03/31 03:27:44;;;;;;;;;;;;;;;15.07;68.66;99482.03;1043688;28;677;-66
2023/03/31 03:28:35;;;;;;;;;;;;;;;15.10;68.63;99489.75;1044565;28;1130;-66
2023/03/31 03:29:26;;;;;;;;;;;;;;;15.08;68.44;99474.81;1044184;28;670;-66
2023/03/31 03:30:16;;;;;;;;;;;;;;;15.08;68.97;99480.19;1044506;28;951;-66
2023/03/31 03:31:08;;;;;;;;;;;;;;;15.09;68.29;99479.19;1042566;28;1534;-66
2023/03/31 03:31:58;;;;;;;;;;;;;;;15.08;68.82;99474.81;1043078;28;1297;-66
2023/03/31 03:32:49;;;;;;;;;;;;;;;15.06;69.08;99466.09;1040157;28;645;-66
2023/03/31 03:33:39;;;;;;;;;;;;;;;15.07;68.45;99463.25;1044496;28;1046;-66
2023/03/31 03:34:30;;;;;;;;;;;;;;;15.09;68.90;99460.41;1045317;28;686;-66
2023/03/31 03:35:20;;;;;;;;;;;;;;;15.05;68.65;99461.75;1041559;28;1090;-66
2023/03/31 03:36:11;;;;;;;;;;;;;;;15.08;68.67;99458.72;1040644;28;893;-66
2023/03/31 03:37:01;;;;;;;;;;;;;;;15.08;68.37;99459.56;1040265;28;1155;-66
2023/03/31 03:37:51;;;;;;;;;;;;;;;15.09;68.95;99455.03;1040568;28;1179;-65
2023/03/31 03:38:42;;;;;;;;;;;;;;;15.09;68.81;99455.88;1041140;28;638;-65
2023/03/31 03:39:32;;;;;;;;;;;;;;;15.11;68.50;99453.88;1040262;28;1108;-67
2023/03/31 03:40:23;;;;;;;;;;;;;;;15.08;68.51;99453.34;1044451;28;626;-67
2023/03/31 03:41:13;;;;;;;;;;;;;;;15.06;68.89;99447.31;1043600;28;705;-67
2023/03/31 03:42:04;;;;;;;;;;;;;;;15.07;68.96;99454.34;1040333;28;740;-67
2023/03/31 03:42:55;;;;;;;;;;;;;;;15.05;68.61;99443.78;1039640;28;702;-67
2023/03/31 03:43:45;;;;;;;;;;;;;;;15.07;68.52;99447.16;1039654;28;661;-67
2023/03/31 03:44:35;;;;;;;;;;;;;;;15.07;68.31;99440.94;1041556;28;944;-67
2023/03/31 03:45:26;;;;;;;;;;;;;;;15.09;68.15;99436.25;1045188;28;641;-67
2023/03/31 03:46:16;;;;;;;;;;;;;;;15.12;68.22;99439.47;1044878;28;948;-66
2023/03/31 03:47:07;;;;;;;;;;;;;;;15.11;68.18;99436.94;1041193;28;684;-66
2023/03/31 03:47:57;;;;;;;;;;;;;;;15.11;68.57;99428.88;1043300;28;1387;-65
2023/03/31 03:48:48;;;;;;;;;;;;;;;15.07;68.48;99423.00;1040991;28;665;-65
2023/03/31 03:49:38;;;;;;;;;;;;;;;15.07;68.72;99431.06;1040853;28;1423;-65
2023/03/31 03:50:28;;;;;;;;;;;;;;;15.06;69.10;99417.78;1040521;28;689;-65
2023/03/31 03:51:19;;;;;;;;;;;;;;;15.02;68.87;99424.53;1041763;28;1047;-65
2023/03/31 03:52:09;;;;;;;;;;;;;;;15.06;68.96;99415.13;1039972;28;733;-65
2023/03/31 03:53:00;;;;;;;;;;;;;;;15.03;68.62;99413.63;1040459;28;669;-65
2023/03/31 03:53:50;;;;;;;;;;;;;;;15.05;68.48;99411.59;1044137;28;648;-65
2023/03/31 03:54:41;;;;;;;;;;;;;;;15.06;69.04;99417.78;1040897;28;1022;-65
2023/03/31 03:55:31;;;;;;;;;;;;;;;15.07;68.67;99419.47;1040700;28;692;-65
2023/03/31 03:56:22;;;;;;;;;;;;;;;15.08;68.57;99415.78;1041611;28;645;-65
2023/03/31 03:57:12;;;;;;;;;;;;;;;15.09;68.46;99417.47;1045094;28;689;-65
2023/03/31 03:58:03;;;;;;;;;;;;;;;15.06;68.65;99415.97;1044274;28;644;-65
2023/03/31 03:58:53;;;;;;;;;;;;;;;15.07;68.66;99419.47;1041081;28;641;-65
2023/03/31 03:59:44;;;;;;;;;;;;;;;15.07;68.85;99420.31;1045119;28;1114;-64
2023/03/31 04:00:34;;;;;;;;;;;;;;;15.04;68.93;99412.63;1044970;28;704;-65
2023/03/31 04:01:24;;;;;;;;;;;;;;;15.02;68.83;99403.91;1044452;28;1197;-65
2023/03/31 04:02:15;;;;;;;;;;;;;;;15.08;68.75;99405.91;1045125;28;650;-65
2023/03/31 04:03:05;;;;;;;;;;;;;;;15.06;68.80;99404.38;1041620;28;656;-65
2023/03/31 04:03:56;;;;;;;;;;;;;;;15.05;68.90;99402.72;1043201;28;1487;-65
2023/03/31 04:04:46;;;;;;;;;;;;;;;15.08;68.17;99397.00;1041031;28;633;-65
2023/03/31 04:05:37;;;;;;;;;;;;;;;15.04;68.56;99398.38;1042373;28;1213;-65
2023/03/31 04:06:27;;;;;;;;;;;;;;;15.05;68.66;99383.94;1043797;28;1075;-65
2023/03/31 04:07:18;;;;;;;;;;;;;;;15.03;68.62;99389.47;1044532;28;880;-64
2023/03/31 04:08:08;;;;;;;;;;;;;;;15.05;68.56;99382.09;1044387;28;1292;-64
2023/03/31 04:08:59;;;;;;;;;;;;;;;15.01;69.13;99382.59;1041496;28;673;-65
2023/03/31 04:09:49;;;;;;;;;;;;;;;15.01;68.93;99377.22;1040397;28;638;-65
2023/03/31 04:10:40;;;;;;;;;;;;;;;15.02;68.68;99384.28;1041045;28;1023;-65
2023/03/31 04:11:30;;;;;;;;;;;;;;;15.03;69.04;99372.53;1041792;28;1113;-65
2023/03/31 04:12:21;;;;;;;;;;;;;;;15.01;69.15;99374.53;1041403;28;1043;-65
2023/03/31 04:13:11;;;;;;;;;;;;;;;15.00;69.34;99371.03;1044677;28;1173;-65
2023/03/31 04:14:01;;;;;;;;;;;;;;;15.02;68.91;99371.69;1040464;28;697;-65
2023/03/31 04:14:52;;;;;;;;;;;;;;;15.02;68.98;99373.53;1040946;28;670;-65
2023/03/31 04:15:42;;;;;;;;;;;;;;;15.03;69.06;99369.88;1045035;28;941;-65
2023/03/31 04:16:33;;;;;;;;;;;;;;;15.03;69.02;99370.69;1045176;28;680;-65
2023/03/31 04:17:31;;;;;;;;;;;;;;;15.04;69.00;99366.19;1044369;28;1161;-65
2023/03/31 04:18:21;;;;;;;;;;;;;;;15.02;69.10;99363.66;1044112;28;1224;-65
2023/03/31 04:19:13;;;;;;;;;;;;;;;15.00;69.13;99364.81;1039783;28;623;-66
2023/03/31 04:20:04;;;;;;;;;;;;;;;15.00;69.27;99364.81;1044403;28;1108;-65
2023/03/31 04:21:04;;;;;;;;;;;;;;;15.02;68.98;99363.66;1045117;28;708;-65
2023/03/31 04:22:01;;;;;;;;;;;;;;;15.06;68.99;99361.47;1044736;28;1079;-65
2023/03/31 04:22:52;;;;;;;;;;;;;;;15.03;69.10;99361.81;1043750;28;694;-65
2023/03/31 04:23:45;;;;;;;;;;;;;;;15.01;69.25;99355.78;1044821;28;708;-65
2023/03/31 04:24:37;;;;;;;;;;;;;;;15.02;68.78;99352.09;1040939;28;653;-65
2023/03/31 04:25:29;;;;;;;;;;;;;;;15.03;68.69;99343.88;1045106;28;667;-65
2023/03/31 04:26:25;;;;;;;;;;;;;;;15.05;68.70;99349.06;1043832;28;1174;-65
2023/03/31 04:27:16;;;;;;;;;;;;;;;15.08;68.57;99356.78;1043511;28;728;-66
2023/03/31 04:28:09;;;;;;;;;;;;;;;15.07;68.61;99339.00;1043379;28;643;-65
2023/03/31 04:28:59;;;;;;;;;;;;;;;15.04;68.92;99333.97;1045208;28;736;-65
2023/03/31 04:29:53;;;;;;;;;;;;;;;15.04;68.85;99344.72;1040163;28;1131;-65
2023/03/31 04:30:44;;;;;;;;;;;;;;;15.02;68.66;99331.47;1039982;28;764;-65